Terminal Aerodrome Forecast
Issued by NWS

Home | Current Version | Previous Version | Text Only | Print | Product List | Glossary Off
Versions: 1 2 3 4 5 6 7 8 9 10 11 12 13 14 15 16 17 18 19 20 21 22 23 24 25 26

000
FTUS43 KABR 141700
TAFMBG
TAF
KMBG 141739Z 1418/1518 35013G18KT P6SM -SHSN BKN040
      TEMPO 1418/1422 4SM -SHSN BKN030
     FM142200 35013KT P6SM SCT050
     FM150200 11007KT P6SM SKC
     FM151400 15018G24KT P6SM SCT150=

USA.gov is the U.S. government's official web portal to all federal, state and local government web resources and services.